createdAt,value
2019-02-28T00:10:49.698Z,4.32
2019-02-28T00:13:21.435Z,4.34
2019-02-28T00:16:11.986Z,4.29
2019-02-28T00:18:39.140Z,4.13
2019-02-28T00:21:47.091Z,4.07
2019-02-28T00:24:14.314Z,4.08
2019-02-28T00:27:22.324Z,4.04
2019-02-28T00:29:49.518Z,4.11
2019-02-28T00:35:59.354Z,4.11
2019-02-28T00:42:00.926Z,4.00
2019-02-28T00:44:31.222Z,3.81
2019-02-28T00:47:07.349Z,3.76
2019-02-28T00:53:08.145Z,3.81
2019-02-28T00:55:35.615Z,3.76
2019-02-28T01:01:23.301Z,3.91
2019-02-28T01:03:50.822Z,4.07
2019-02-28T01:09:19.606Z,4.18
2019-02-28T01:11:48.654Z,4.13
2019-02-28T01:14:35.828Z,3.99
2019-02-28T01:21:02.917Z,3.94
2019-02-28T01:23:30.226Z,3.95
2019-02-28T01:26:18.934Z,3.88
2019-02-28T01:28:46.106Z,3.82
2019-02-28T01:31:54.122Z,3.77
2019-02-28T01:34:21.283Z,3.90
2019-02-28T01:40:30.434Z,3.93
2019-02-28T01:42:57.624Z,3.85
2019-02-28T01:45:24.813Z,3.81
2019-02-28T01:48:32.765Z,3.82
2019-02-28T01:54:33.444Z,4.00
2019-02-28T01:57:00.628Z,4.05
2019-02-28T01:59:39.352Z,4.05
2019-02-28T02:11:49.603Z,4.20
2019-02-28T02:14:16.849Z,4.37
2019-02-28T02:16:43.989Z,4.59
2019-02-28T02:22:11.913Z,4.56
2019-02-28T02:33:52.442Z,4.59
2019-02-28T02:36:38.467Z,4.56
2019-02-28T02:42:11.308Z,4.46
2019-02-28T02:44:57.279Z,4.55
2019-02-28T02:47:31.328Z,4.53
2019-02-28T02:50:01.397Z,4.50
2019-02-28T02:55:28.028Z,4.38
2019-02-28T02:57:57.166Z,4.28
2019-02-28T03:00:24.351Z,4.12
2019-02-28T03:02:51.414Z,4.04
2019-02-28T03:05:18.609Z,4.13
2019-02-28T03:07:46.091Z,4.02
2019-02-28T03:10:17.519Z,4.06
2019-02-28T03:13:04.853Z,3.95
2019-02-28T03:15:38.036Z,3.78
2019-02-28T03:21:06.388Z,3.59
2019-02-28T03:23:37.911Z,3.64
2019-02-28T03:26:12.454Z,3.57
2019-02-28T03:28:59.501Z,3.45
2019-02-28T03:32:07.522Z,3.38
2019-02-28T03:34:34.998Z,3.37
2019-02-28T03:43:26.612Z,3.16
2019-02-28T03:45:54.175Z,3.17
2019-02-28T03:49:02.169Z,3.15
2019-02-28T03:51:29.664Z,3.13
2019-02-28T03:54:45.532Z,3.09
2019-02-28T04:03:48.058Z,3.14
2019-02-28T04:09:17.895Z,3.01
2019-02-28T04:11:56.619Z,3.00
2019-02-28T04:14:23.831Z,3.04
2019-02-28T04:16:54.049Z,3.05
2019-02-28T04:19:29.744Z,3.09
2019-02-28T04:21:56.922Z,3.12
2019-02-28T04:24:24.077Z,3.20
2019-02-28T04:29:52.638Z,3.12
2019-02-28T04:32:26.623Z,3.08
2019-02-28T04:34:54.635Z,3.05
2019-02-28T04:37:21.815Z,3.07
2019-02-28T04:39:48.961Z,3.06
2019-02-28T04:42:18.016Z,3.05
2019-02-28T04:45:04.627Z,3.03
2019-02-28T04:47:51.311Z,3.03
2019-02-28T04:50:18.467Z,3.05
2019-02-28T04:53:05.140Z,3.05
2019-02-28T04:55:34.269Z,3.00
2019-02-28T04:58:10.947Z,3.11
2019-02-28T05:00:38.878Z,3.06
2019-02-28T05:06:28.180Z,2.98
2019-02-28T05:12:29.326Z,2.82
2019-02-28T05:14:58.511Z,2.90
2019-02-28T05:23:35.992Z,2.59
2019-02-28T05:26:23.515Z,2.50
2019-02-28T05:28:58.629Z,2.43
2019-02-28T05:31:27.110Z,2.49
2019-02-28T05:34:23.972Z,2.47
2019-02-28T05:36:51.154Z,2.55
2019-02-28T05:39:18.299Z,2.51
2019-02-28T05:41:49.447Z,2.70
2019-02-28T05:44:37.440Z,2.68
2019-02-28T05:47:11.660Z,2.63
2019-02-28T05:49:40.658Z,2.63
2019-02-28T05:52:17.410Z,2.68
2019-02-28T05:54:47.207Z,2.85
2019-02-28T05:57:33.806Z,2.78
2019-02-28T06:00:01.787Z,2.73
2019-02-28T06:02:39.831Z,2.91
2019-02-28T06:08:40.943Z,3.03
2019-02-28T06:11:08.285Z,3.09
2019-02-28T06:13:36.974Z,3.20
2019-02-28T06:16:14.343Z,3.14
2019-02-28T06:18:41.431Z,3.22
2019-02-28T06:24:12.808Z,3.39
2019-02-28T06:26:45.294Z,3.46
2019-02-28T06:29:12.915Z,3.53
2019-02-28T06:35:00.636Z,3.60
2019-02-28T06:37:28.182Z,3.74
2019-02-28T06:39:58.052Z,3.71
2019-02-28T06:42:30.803Z,3.79
2019-02-28T06:44:58.731Z,4.06
2019-02-28T06:47:49.590Z,4.58
2019-02-28T06:53:43.023Z,6.80
2019-02-28T06:56:10.267Z,7.98
2019-02-28T06:58:37.486Z,8.43
2019-02-28T07:01:04.748Z,8.75
2019-02-28T07:03:31.937Z,9.15
2019-02-28T07:06:01.196Z,9.45
2019-02-28T07:09:08.957Z,10.04
2019-02-28T07:11:36.146Z,10.37
2019-02-28T07:14:03.617Z,10.88
2019-02-28T07:16:34.496Z,11.55
2019-02-28T07:22:55.645Z,12.76
2019-02-28T07:28:37.805Z,13.63
2019-02-28T07:34:34.632Z,16.53
2019-02-28T07:37:42.640Z,17.71
2019-02-28T07:40:41.951Z,18.97
2019-02-28T07:43:12.279Z,20.20
2019-02-28T07:48:37.979Z,22.19
2019-02-28T07:54:06.452Z,23.75
2019-02-28T07:56:53.116Z,24.55
2019-02-28T07:59:20.354Z,25.09
2019-02-28T08:02:28.354Z,25.52
2019-02-28T08:04:55.981Z,26.05
2019-02-28T08:07:23.162Z,26.82
2019-02-28T08:09:50.372Z,26.95
2019-02-28T08:12:17.636Z,27.35
2019-02-28T08:14:47.089Z,27.77
2019-02-28T08:17:43.901Z,28.22
2019-02-28T08:20:59.635Z,28.98
2019-02-28T08:32:30.718Z,29.81
2019-02-28T08:34:59.537Z,29.44
2019-02-28T08:40:57.911Z,30.10
2019-02-28T08:46:26.197Z,30.71
2019-02-28T08:48:53.519Z,31.05
2019-02-28T08:54:26.269Z,31.97
2019-02-28T08:57:00.512Z,32.11
2019-02-28T08:59:27.742Z,32.43
2019-02-28T09:01:54.948Z,32.21
2019-02-28T09:04:22.115Z,31.93
2019-02-28T09:06:49.650Z,31.85
2019-02-28T09:09:16.882Z,31.93
2019-02-28T09:12:24.929Z,31.61
2019-02-28T09:14:55.403Z,31.72
2019-02-28T09:17:31.142Z,31.58
2019-02-28T09:23:34.464Z,31.08
2019-02-28T09:26:51.662Z,30.32
2019-02-28T09:29:21.194Z,29.80
2019-02-28T09:32:27.164Z,27.58
2019-02-28T09:34:54.657Z,24.45
2019-02-28T09:37:21.818Z,21.78
2019-02-28T09:40:08.566Z,20.42
2019-02-28T09:43:16.579Z,19.31
2019-02-28T09:45:43.823Z,18.23
2019-02-28T09:51:19.285Z,16.55
2019-02-28T09:53:47.304Z,15.86
2019-02-28T09:56:21.684Z,15.51
2019-02-28T09:58:49.613Z,15.37
2019-02-28T10:01:27.876Z,15.22
2019-02-28T10:07:28.847Z,15.16
2019-02-28T10:09:56.697Z,15.01
2019-02-28T10:12:23.880Z,14.91
2019-02-28T10:15:10.737Z,14.90
2019-02-28T10:17:37.819Z,14.91
2019-02-28T10:23:06.739Z,14.97
2019-02-28T10:25:34.004Z,15.15
2019-02-28T10:28:02.697Z,15.20
2019-02-28T10:30:36.499Z,15.16
2019-02-28T10:36:38.093Z,15.48
2019-02-28T10:42:07.983Z,16.29
2019-02-28T10:44:49.051Z,16.73
2019-02-28T10:47:16.182Z,17.24
2019-02-28T10:49:43.480Z,17.60
2019-02-28T10:52:10.697Z,17.80
2019-02-28T10:54:37.912Z,17.75
2019-02-28T10:57:06.125Z,17.62
2019-02-28T10:59:40.893Z,17.56
2019-02-28T11:08:21.819Z,17.52
2019-02-28T11:14:20.632Z,17.38
2019-02-28T11:16:47.884Z,17.70
2019-02-28T11:19:18.613Z,18.05
2019-02-28T11:24:29.971Z,18.36
2019-02-28T11:26:57.242Z,18.51
2019-02-28T11:29:24.408Z,18.64
2019-02-28T11:32:32.471Z,18.51
2019-02-28T11:34:59.699Z,18.39
2019-02-28T11:38:07.853Z,18.25
2019-02-28T11:40:35.405Z,18.22
2019-02-28T11:43:43.527Z,18.28
2019-02-28T11:49:31.003Z,18.09
2019-02-28T11:51:58.362Z,18.12
2019-02-28T11:54:26.196Z,18.00
2019-02-28T11:57:37.774Z,18.10
2019-02-28T12:00:32.585Z,18.25
2019-02-28T12:03:46.062Z,18.51
2019-02-28T12:06:13.302Z,18.72
2019-02-28T12:08:41.601Z,18.99
2019-02-28T12:11:28.545Z,19.15
2019-02-28T12:13:56.100Z,19.39
2019-02-28T12:16:44.698Z,19.61
2019-02-28T12:19:31.342Z,19.97
2019-02-28T12:22:00.139Z,20.37
2019-02-28T12:27:55.276Z,20.99
2019-02-28T12:33:37.230Z,21.11
2019-02-28T12:36:04.276Z,20.61
2019-02-28T12:38:31.475Z,20.15
2019-02-28T12:40:58.664Z,19.92
2019-02-28T12:43:25.854Z,19.57
2019-02-28T12:45:53.644Z,19.28
2019-02-28T12:48:31.602Z,19.08
2019-02-28T12:50:58.716Z,18.88
2019-02-28T12:53:38.035Z,18.66
2019-02-28T12:56:05.220Z,18.49
2019-02-28T12:58:38.758Z,18.34
2019-02-28T13:04:03.399Z,18.04
2019-02-28T13:06:37.150Z,17.95
2019-02-28T13:12:08.153Z,18.02
2019-02-28T13:14:55.201Z,18.12
2019-02-28T13:17:54.287Z,18.20
2019-02-28T13:23:42.189Z,18.24
2019-02-28T13:26:09.365Z,18.13
2019-02-28T13:28:36.538Z,18.15
2019-02-28T13:34:20.466Z,18.21
2019-02-28T13:37:19.569Z,18.33
2019-02-28T13:39:58.780Z,18.37
2019-02-28T13:46:17.693Z,18.24
2019-02-28T13:52:20.506Z,18.25
2019-02-28T13:55:14.335Z,18.26
2019-02-28T13:57:48.883Z,18.18
2019-02-28T14:00:30.287Z,18.13
2019-02-28T14:03:11.297Z,18.17
2019-02-28T14:08:59.446Z,18.11
2019-02-28T14:14:07.691Z,18.27
2019-02-28T14:16:55.204Z,18.20
2019-02-28T14:20:05.047Z,18.16
2019-02-28T14:25:52.497Z,18.12
2019-02-28T14:28:19.711Z,18.09
2019-02-28T14:30:46.887Z,18.12
2019-02-28T14:33:16.224Z,18.07
2019-02-28T14:39:35.178Z,18.07
2019-02-28T14:42:03.028Z,18.11
2019-02-28T14:44:51.235Z,18.01
2019-02-28T14:47:18.331Z,17.98
2019-02-28T14:50:26.349Z,17.93
2019-02-28T14:56:28.033Z,18.02
2019-02-28T14:58:57.515Z,18.11
2019-02-28T15:01:30.512Z,18.14
2019-02-28T15:03:57.974Z,18.17
2019-02-28T15:06:26.363Z,18.11
2019-02-28T15:09:00.393Z,18.05
2019-02-28T15:11:48.199Z,17.98
2019-02-28T15:14:22.525Z,17.93
2019-02-28T15:16:49.741Z,18.01
2019-02-28T15:22:21.005Z,18.06
2019-02-28T15:24:56.842Z,18.00
2019-02-28T15:27:24.469Z,17.94
2019-02-28T15:30:11.489Z,17.85
2019-02-28T15:32:38.707Z,17.75
2019-02-28T15:35:49.838Z,17.62
2019-02-28T15:41:24.525Z,17.50
2019-02-28T15:47:22.821Z,17.72
2019-02-28T15:50:51.701Z,17.79
2019-02-28T15:53:25.738Z,17.70
2019-02-28T15:55:52.950Z,17.69
2019-02-28T15:58:20.505Z,17.59
2019-02-28T16:00:47.952Z,17.38
2019-02-28T16:03:16.773Z,17.13
2019-02-28T16:05:56.218Z,17.06
2019-02-28T16:11:53.578Z,16.68
2019-02-28T16:23:43.505Z,15.96
2019-02-28T16:26:11.035Z,15.86
2019-02-28T16:28:39.527Z,15.77
2019-02-28T16:31:13.575Z,15.83
2019-02-28T16:34:08.037Z,15.84
2019-02-28T16:36:49.452Z,15.74
2019-02-28T16:42:28.913Z,15.55
2019-02-28T16:44:56.143Z,15.39
2019-02-28T16:47:24.353Z,15.29
2019-02-28T16:49:59.466Z,15.18
2019-02-28T16:52:28.479Z,15.34
2019-02-28T16:54:56.268Z,15.37
2019-02-28T16:58:15.108Z,15.28
2019-02-28T17:01:01.844Z,15.44
2019-02-28T17:03:29.044Z,15.37
2019-02-28T17:09:45.822Z,15.32
2019-02-28T17:18:03.438Z,14.91
2019-02-28T17:21:16.864Z,14.82
2019-02-28T17:23:47.238Z,14.73
2019-02-28T17:26:14.773Z,14.55
2019-02-28T17:29:01.537Z,14.60
2019-02-28T17:31:49.320Z,14.63
2019-02-28T17:34:36.092Z,14.52
2019-02-28T17:43:24.063Z,14.25
2019-02-28T17:45:58.196Z,14.13
2019-02-28T17:49:06.120Z,14.20
2019-02-28T17:51:58.567Z,14.14
2019-02-28T17:55:09.892Z,13.98
2019-02-28T17:57:59.882Z,13.94
2019-02-28T18:04:45.818Z,13.85
2019-02-28T18:07:52.212Z,13.67
2019-02-28T18:10:59.166Z,13.67
2019-02-28T18:14:09.288Z,13.64
2019-02-28T18:17:17.343Z,13.61
2019-02-28T18:20:25.868Z,13.42
2019-02-28T18:23:38.866Z,13.54
2019-02-28T18:26:45.566Z,13.54
2019-02-28T18:29:52.490Z,13.47
2019-02-28T18:35:40.792Z,13.25
2019-02-28T18:38:08.274Z,13.22
2019-02-28T18:47:20.801Z,13.06
2019-02-28T18:50:08.016Z,13.00
2019-02-28T18:53:16.186Z,13.04
2019-02-28T18:59:17.278Z,12.97
2019-02-28T19:07:59.713Z,12.97
2019-02-28T19:10:27.034Z,12.85
2019-02-28T19:12:54.573Z,12.83
2019-02-28T19:15:21.899Z,12.78
2019-02-28T19:18:08.651Z,12.70
2019-02-28T19:20:48.705Z,12.54
2019-02-28T19:26:36.134Z,12.44
2019-02-28T19:32:24.975Z,12.17
2019-02-28T19:37:54.390Z,12.19
2019-02-28T19:46:23.869Z,12.09
2019-02-28T20:00:55.671Z,12.26
2019-02-28T20:03:23.576Z,12.21
2019-02-28T20:06:02.847Z,12.15
2019-02-28T20:11:56.494Z,12.13
2019-02-28T20:14:23.667Z,12.07
2019-02-28T20:16:50.917Z,12.02
2019-02-28T20:19:18.161Z,12.07
2019-02-28T20:22:17.268Z,12.04
2019-02-28T20:24:45.006Z,12.04
2019-02-28T20:27:12.859Z,11.96
2019-02-28T20:32:41.346Z,11.77
2019-02-28T20:35:10.839Z,11.74
2019-02-28T20:38:18.886Z,11.74
2019-02-28T20:40:46.207Z,11.77
2019-02-28T20:43:13.480Z,11.69
2019-02-28T20:48:33.973Z,11.68
2019-02-28T20:51:13.130Z,11.70
2019-02-28T21:00:46.963Z,11.77
2019-02-28T21:09:48.457Z,11.59
2019-02-28T21:12:15.654Z,11.66
2019-02-28T21:14:42.883Z,11.61
2019-02-28T21:17:10.493Z,11.61
2019-02-28T21:19:37.773Z,11.56
2019-02-28T21:22:05.493Z,11.73
2019-02-28T21:24:32.877Z,11.79
2019-02-28T21:27:00.423Z,11.72
2019-02-28T21:29:27.642Z,11.69
2019-02-28T21:31:54.980Z,11.72
2019-02-28T21:34:22.259Z,11.70
2019-02-28T21:36:49.502Z,11.74
2019-02-28T21:39:16.814Z,11.81
2019-02-28T21:41:44.476Z,11.74
2019-02-28T21:44:11.817Z,11.62
2019-02-28T21:46:39.094Z,11.64
2019-02-28T21:49:06.310Z,11.62
2019-02-28T21:51:33.550Z,11.63
2019-02-28T21:54:00.804Z,11.68
2019-02-28T21:56:28.078Z,11.71
2019-02-28T21:58:55.610Z,11.64
2019-02-28T22:01:22.966Z,11.53
2019-02-28T22:03:50.448Z,11.45
2019-02-28T22:06:18.028Z,11.45
2019-02-28T22:08:45.620Z,11.40
2019-02-28T22:11:13.422Z,11.43
2019-02-28T22:13:40.624Z,11.44
2019-02-28T22:16:07.856Z,11.47
2019-02-28T22:18:35.065Z,11.54
2019-02-28T22:21:02.320Z,11.43
2019-02-28T22:23:29.767Z,11.39
2019-02-28T22:25:56.983Z,11.39
2019-02-28T22:28:24.263Z,11.40
2019-02-28T22:31:11.345Z,11.49
2019-02-28T22:33:58.197Z,11.61
2019-02-28T22:36:45.022Z,11.59
2019-02-28T22:39:12.655Z,11.61
2019-02-28T22:41:41.622Z,11.46
2019-02-28T22:44:08.852Z,11.52
2019-02-28T22:46:36.040Z,11.38
2019-02-28T22:49:03.240Z,11.39
2019-02-28T22:52:11.290Z,11.27
2019-02-28T22:54:38.480Z,11.13
2019-02-28T23:00:04.901Z,11.02
2019-02-28T23:02:33.909Z,11.23
2019-02-28T23:05:43.769Z,11.32
2019-02-28T23:10:50.211Z,11.27
2019-02-28T23:13:59.976Z,11.23
2019-02-28T23:16:27.177Z,11.21
2019-02-28T23:18:55.002Z,11.31
2019-02-28T23:24:37.040Z,11.18
2019-02-28T23:27:23.649Z,11.13
2019-02-28T23:30:37.685Z,11.11
2019-02-28T23:36:26.501Z,10.95
2019-02-28T23:38:53.698Z,10.82
2019-02-28T23:41:54.497Z,10.73
2019-02-28T23:47:41.586Z,10.96
2019-02-28T23:50:08.685Z,11.07
2019-02-28T23:55:37.441Z,11.26
